Airfield :
LOGIN :

Register | Disclaimer

   EN    FR    IT 

 










Legend :    VFR   Marginal VFR   IFR   Intensive IFR   Very Intensive IFR
Visi :
Ceiling :
>= 8 km
>= 3000ft
5 to 8 km
1000 to 3000 ft
1500m to 5 km
500 to 1000 ft
800 to 1500m
200 to 500 ft
< 800m
< 200 ft
Symbols :   Thunderstorms  Fog  Heavy snow  Heavy precipitations  Wind > 20 kt
SIGMETs :     Misc.  Thunderstorms  Icing  Turbulence  Mountain Waves  Volcanic Ashes






- Airport Elevation : 240 ft
- IATA code : VLC


LEVC - Valencia Manises

CURRENT METAR :
  • 141230Z 11012KT 080V140 CAVOK 29/18 Q1013 NOSIG

EXPIRED METARs :
  • 141200Z 13010KT CAVOK 28/18 Q1014 NOSIG
  • 141130Z 13007KT 070V170 CAVOK 29/19 Q1014 NOSIG
  • 141100Z 12006KT 050V160 CAVOK 28/18 Q1014 NOSIG
  • 141030Z 13005KT 080V200 CAVOK 29/18 Q1015 NOSIG
  • 141000Z 12004KT 040V200 CAVOK 27/17 Q1015 NOSIG
  • 140930Z 09003KT CAVOK 27/18 Q1015 NOSIG
  • 140900Z 14005KT 080V200 CAVOK 25/18 Q1015 NOSIG
  • 140830Z 13005KT 100V180 CAVOK 24/18 Q1016 NOSIG
  • 140800Z 13006KT 100V190 CAVOK 23/18 Q1016 NOSIG

TAF TAF LEVC
Valid from the 14 at 12:00 until the 15 at 12:00 UTC


141100Z 1412/1512 12010KT 9999 FEW030 TX30/1412Z TN18/1505Z
BECMG 1419/1422 35005KT
BECMG 1507/1510 09010KT



MET'MAP, your aeronautical weather chart ! - Copyright ORBIFLY December 2007 - Disclaimer

ORBIFLY MET'MAP TEAM :

Programming & Development : Alexandra Zaïnal
Original concept : Baudouin d'Aumeries
Technical & hardware support : Manuel Goepfert
Assistance : Marc-Olivier Méhu




SOURCES & CREDITS :

   NOAA